ESNU/UME METAR and TAF weather

Enter ICAO airport designator
Station Type Date Time Source
ESNU METAR 2022/05/24 11:50 UTC NOAA

ESNU 241150Z 15010KT CAVOK 14/06 Q1012


Station Type Date Time Source
ESNU Decoded METAR 2022/05/24 11:50 UTC NOAA

Umea Flygplats, Sweden (ESNU) 63-48N 020-17E 14M
May 24, 2022 - 07:50 AM EDT / 2022.05.24 1150 UTC
Wind: from the SSE (150 degrees) at 12 MPH (10 KT):0
Visibility: greater than 7 mile(s):0
Temperature: 57 F (14 C)
Dew Point: 42 F (6 C)
Relative Humidity: 58%
Pressure (altimeter): 29.88 in. Hg (1012 hPa)
ob: ESNU 241150Z 15010KT CAVOK 14/06 Q1012
cycle: 12

Station Type Date Time Source
ESNU TAF 2019/10/24 00:55 UTC NOAA

TAF
AMD ESNU 242348Z 2500/2524 16003KT 0200 FG VV002 PROB40 2500/2509 8000 -RA BKN005

Example: see airport list